Time;durP1;ratioP1;P1;durP2;ratioP2;P2;SDS_P1;SDS_P2;PMS_P1;PMS_P2;Temp;Humidity;BMP_temperature;BMP_pressure;BME280_temperature;BME280_humidity;BME280_pressure;Samples;Min_cycle;Max_cycle;Signal;HPM_P1;HPM_P2
2022/03/03 00:01:44;;;;;;;5.90;4.20;;;;;;;17.62;41.81;102196.72;5106817;28;20040;-43
2022/03/03 00:04:11;;;;;;;5.68;4.38;;;;;;;17.60;41.21;102198.63;5102624;28;20047;-41
2022/03/03 00:06:38;;;;;;;7.53;4.40;;;;;;;17.57;41.18;102193.53;5107546;28;20481;-42
2022/03/03 00:09:05;;;;;;;5.93;4.43;;;;;;;17.57;41.01;102203.38;5106098;28;20035;-42
2022/03/03 00:11:32;;;;;;;6.78;4.22;;;;;;;17.54;41.36;102191.09;5102624;28;20719;-42
2022/03/03 00:13:59;;;;;;;7.22;4.82;;;;;;;17.54;41.33;102193.75;5107111;28;20050;-42
2022/03/03 00:16:26;;;;;;;6.88;4.35;;;;;;;17.51;41.37;102189.47;5100733;28;20616;-42
2022/03/03 00:18:52;;;;;;;6.65;4.32;;;;;;;17.49;41.46;102193.25;5106603;28;20052;-42
2022/03/03 00:21:19;;;;;;;6.30;4.00;;;;;;;17.48;41.19;102202.25;5102201;28;20338;-42
2022/03/03 00:23:46;;;;;;;7.88;4.97;;;;;;;17.46;41.05;102199.69;5105281;28;20074;-42
2022/03/03 00:26:12;;;;;;;5.85;4.25;;;;;;;17.43;41.31;102197.25;5103587;28;20405;-42
2022/03/03 00:28:39;;;;;;;5.75;4.43;;;;;;;17.43;41.59;102201.75;5104906;28;20343;-42
2022/03/03 00:31:07;;;;;;;6.63;4.38;;;;;;;17.42;41.24;102200.91;5100109;28;20075;-41
2022/03/03 00:33:33;;;;;;;8.05;4.65;;;;;;;17.42;41.24;102198.22;5102399;28;20052;-42
2022/03/03 00:36:00;;;;;;;5.28;3.92;;;;;;;17.40;41.62;102200.16;5104173;28;20492;-42
2022/03/03 00:38:26;;;;;;;7.55;4.78;;;;;;;17.37;41.36;102187.00;5101933;28;20051;-42
2022/03/03 00:40:53;;;;;;;6.75;4.30;;;;;;;17.39;40.87;102189.56;5102960;28;20374;-42
2022/03/03 00:43:19;;;;;;;6.57;4.53;;;;;;;17.37;41.47;102191.53;5102010;28;20047;-43
2022/03/03 00:45:46;;;;;;;6.13;4.43;;;;;;;17.34;40.67;102189.06;5102996;28;20070;-42
2022/03/03 00:48:13;;;;;;;6.55;4.32;;;;;;;17.32;40.94;102186.47;5104927;28;20055;-42
2022/03/03 00:50:39;;;;;;;6.10;3.90;;;;;;;17.29;41.66;102186.75;5102658;28;20063;-42
2022/03/03 00:53:06;;;;;;;6.38;4.30;;;;;;;17.28;41.57;102190.38;5102800;28;20052;-42
2022/03/03 00:55:33;;;;;;;9.20;4.53;;;;;;;17.28;41.63;102190.38;5099942;28;20327;-42
2022/03/03 00:57:59;;;;;;;7.22;4.45;;;;;;;17.26;41.19;102190.50;5103198;28;20083;-41
2022/03/03 01:00:26;;;;;;;6.18;4.43;;;;;;;17.26;41.45;102177.09;5101196;28;20051;-41
2022/03/03 01:02:53;;;;;;;9.55;4.78;;;;;;;17.23;41.02;102180.00;5101177;28;20139;-42
2022/03/03 01:05:19;;;;;;;6.63;4.70;;;;;;;17.24;40.79;102172.81;5104107;28;20081;-42
2022/03/03 01:07:46;;;;;;;7.50;4.80;;;;;;;17.22;41.94;102169.41;5100988;28;20127;-42
2022/03/03 01:10:13;;;;;;;6.80;4.00;;;;;;;17.21;40.98;102171.25;5104399;28;20074;-42
2022/03/03 01:12:40;;;;;;;6.20;4.32;;;;;;;17.20;41.03;102164.16;5102750;28;20128;-42
2022/03/03 01:15:08;;;;;;;5.75;4.28;;;;;;;17.19;41.07;102165.13;5100847;28;20036;-42
2022/03/03 01:17:35;;;;;;;7.45;4.55;;;;;;;17.17;41.80;102155.50;5100601;28;20051;-41
2022/03/03 01:20:05;;;;;;;5.50;4.13;;;;;;;17.15;41.38;102160.13;5102743;28;20358;-41
2022/03/03 01:22:31;;;;;;;6.57;4.43;;;;;;;17.15;41.00;102146.72;5098542;28;20047;-41
2022/03/03 01:24:58;;;;;;;5.65;4.18;;;;;;;17.13;40.77;102146.00;5102353;28;20065;-41
2022/03/03 01:27:25;;;;;;;6.15;3.92;;;;;;;17.11;40.95;102143.41;5105711;28;20051;-42
2022/03/03 01:29:52;;;;;;;5.80;3.80;;;;;;;17.12;41.68;102142.44;5099631;28;20118;-42
2022/03/03 01:32:19;;;;;;;6.45;4.32;;;;;;;17.10;40.61;102141.72;5101907;28;20051;-41
2022/03/03 01:34:46;;;;;;;5.88;4.20;;;;;;;17.08;40.86;102135.59;5103262;28;20120;-42
2022/03/03 01:37:12;;;;;;;5.57;4.00;;;;;;;17.06;41.43;102132.22;5102413;28;20051;-42
2022/03/03 01:39:39;;;;;;;6.13;4.38;;;;;;;17.06;41.19;102131.34;5098753;28;20066;-43
2022/03/03 01:42:06;;;;;;;6.85;4.18;;;;;;;17.03;41.98;102133.28;5099867;28;20041;-42
2022/03/03 01:44:32;;;;;;;6.75;4.45;;;;;;;17.02;41.90;102128.06;5101399;28;20046;-42
2022/03/03 01:47:00;;;;;;;5.57;4.20;;;;;;;17.01;40.82;102121.00;5097806;28;20055;-42
2022/03/03 01:49:27;;;;;;;6.18;4.40;;;;;;;17.01;41.27;102123.66;5103451;28;20039;-42
2022/03/03 01:51:53;;;;;;;6.43;4.57;;;;;;;16.99;41.59;102126.44;5102196;28;20044;-42
2022/03/03 01:54:20;;;;;;;6.28;4.35;;;;;;;16.97;41.00;102123.03;5104685;28;20040;-42
2022/03/03 01:56:47;;;;;;;6.13;4.22;;;;;;;16.94;41.16;102120.59;5105424;28;20044;-42
2022/03/03 01:59:14;;;;;;;5.57;4.03;;;;;;;16.94;41.57;102119.75;5101065;28;20143;-41
2022/03/03 02:01:42;;;;;;;7.18;4.40;;;;;;;16.91;41.24;102111.94;5101545;28;20050;-41
2022/03/03 02:04:09;;;;;;;6.18;4.50;;;;;;;16.91;41.15;102117.28;5102119;28;20048;-42
2022/03/03 02:06:37;;;;;;;5.45;4.30;;;;;;;16.89;41.45;102111.22;5098836;28;20131;-43
2022/03/03 02:09:04;;;;;;;6.90;4.18;;;;;;;16.88;41.76;102110.31;5103765;28;20422;-42
2022/03/03 02:11:32;;;;;;;5.88;4.40;;;;;;;16.87;40.94;102102.41;5101919;28;20048;-42
2022/03/03 02:14:02;;;;;;;6.15;4.18;;;;;;;16.85;41.72;102112.41;5101950;28;20064;-42
2022/03/03 02:16:28;;;;;;;6.45;4.40;;;;;;;16.84;41.57;102108.00;5099663;28;20407;-42
2022/03/03 02:18:55;;;;;;;8.27;4.43;;;;;;;16.84;41.22;102110.66;5104386;28;20129;-42
2022/03/03 02:21:22;;;;;;;6.25;4.85;;;;;;;16.82;40.92;102105.44;5102863;28;20044;-42
2022/03/03 02:23:49;;;;;;;6.10;4.28;;;;;;;16.80;41.26;102112.72;5102370;28;20043;-42
2022/03/03 02:26:21;;;;;;;7.88;4.40;;;;;;;16.80;41.80;102102.00;5101856;28;20119;-42
2022/03/03 02:28:49;;;;;;;6.53;4.85;;;;;;;16.77;40.92;102097.75;5101697;28;20122;-42
2022/03/03 02:31:16;;;;;;;7.40;4.35;;;;;;;16.76;41.72;102095.19;5101623;28;20047;-41
2022/03/03 02:33:43;;;;;;;7.15;4.50;;;;;;;16.75;40.95;102096.16;5100516;28;20048;-41
2022/03/03 02:36:29;;;;;;;6.45;4.68;;;;;;;16.74;41.94;102099.81;5107402;28;20064;-40
2022/03/03 02:38:59;;;;;;;6.13;4.15;;;;;;;16.73;40.78;102103.47;5106216;28;20048;-42
2022/03/03 02:41:26;;;;;;;6.85;4.43;;;;;;;16.72;41.19;102107.94;5106526;28;20050;-42
2022/03/03 02:43:54;;;;;;;6.03;4.55;;;;;;;16.70;41.39;102101.81;5105100;28;20058;-42
2022/03/03 02:46:21;;;;;;;6.93;4.72;;;;;;;16.68;41.63;102095.75;5104936;28;20040;-42
2022/03/03 02:48:47;;;;;;;6.45;4.72;;;;;;;16.68;40.88;102100.22;5107223;28;20445;-42
2022/03/03 02:51:14;;;;;;;5.32;4.05;;;;;;;16.66;41.43;102091.47;5107041;28;20036;-42
2022/03/03 02:53:41;;;;;;;6.88;4.47;;;;;;;16.65;41.40;102087.94;5104543;28;20551;-42
2022/03/03 02:56:07;;;;;;;7.55;5.05;;;;;;;16.64;41.53;102090.72;5103211;28;20036;-42
2022/03/03 02:58:34;;;;;;;7.18;4.60;;;;;;;16.62;41.41;102082.81;5106925;28;20048;-42
2022/03/03 03:01:03;;;;;;;7.28;4.85;;;;;;;16.61;40.69;102081.09;5104141;28;20475;-42
2022/03/03 03:03:30;;;;;;;6.65;5.05;;;;;;;16.61;41.18;102074.91;5103317;28;20507;-41
2022/03/03 03:05:56;;;;;;;7.28;5.13;;;;;;;16.61;41.62;102082.94;5108981;28;20135;-42
2022/03/03 03:08:23;;;;;;;6.28;4.35;;;;;;;16.60;40.93;102074.00;5103215;28;20146;-41
2022/03/03 03:10:50;;;;;;;6.85;5.15;;;;;;;16.60;41.42;102073.16;5106428;27;20075;-41
2022/03/03 03:13:16;;;;;;;6.75;4.75;;;;;;;16.58;41.31;102065.25;5103842;28;20047;-41
2022/03/03 03:15:44;;;;;;;6.78;3.78;;;;;;;16.58;41.60;102059.91;5102456;28;20051;-40
2022/03/03 03:18:13;;;;;;;5.55;4.55;;;;;;;16.56;40.87;102064.50;5103346;28;20040;-41
2022/03/03 03:20:42;;;;;;;6.32;4.78;;;;;;;16.58;41.24;102061.72;5104245;28;20043;-41
2022/03/03 03:23:12;;;;;;;6.63;4.80;;;;;;;16.57;40.75;102055.53;5105683;28;20586;-41
2022/03/03 03:25:43;;;;;;;6.78;4.60;;;;;;;16.57;41.65;102063.56;5102541;28;20130;-42
2022/03/03 03:28:11;;;;;;;7.38;4.53;;;;;;;16.55;41.37;102060.13;5104863;28;20055;-41
2022/03/03 03:30:38;;;;;;;7.10;4.43;;;;;;;16.54;40.94;102063.78;5104072;27;20040;-41
2022/03/03 03:33:05;;;;;;;6.90;4.95;;;;;;;16.53;40.78;102068.28;5105295;28;20035;-41
2022/03/03 03:35:31;;;;;;;10.40;5.20;;;;;;;16.52;40.55;102061.22;5105704;28;20063;-41
2022/03/03 03:37:58;;;;;;;7.07;4.90;;;;;;;16.51;41.54;102064.00;5101657;28;20338;-42
2022/03/03 03:40:24;;;;;;;9.70;5.43;;;;;;;16.49;40.46;102061.44;5109336;28;20046;-42
2022/03/03 03:42:51;;;;;;;6.50;4.60;;;;;;;16.48;41.58;102056.19;5102946;28;20143;-41
2022/03/03 03:45:18;;;;;;;7.90;5.10;;;;;;;16.50;40.96;102055.13;5104471;28;20139;-41
2022/03/03 03:47:44;;;;;;;6.40;4.60;;;;;;;16.53;41.24;102052.22;5100950;28;20044;-41
2022/03/03 03:50:13;;;;;;;5.57;4.15;;;;;;;16.61;41.40;102048.97;5102926;28;20048;-42
2022/03/03 03:52:41;;;;;;;7.55;4.70;;;;;;;16.68;40.72;102044.88;5106123;28;20514;-41
2022/03/03 03:55:10;;;;;;;6.88;4.47;;;;;;;16.75;41.26;102039.94;5104868;28;20142;-41
2022/03/03 03:57:37;;;;;;;5.70;3.95;;;;;;;16.81;40.47;102038.63;5102578;28;20042;-41
2022/03/03 04:00:10;;;;;;;6.82;4.68;;;;;;;16.87;40.82;102032.78;5102752;28;20067;-42
2022/03/03 04:02:37;;;;;;;6.90;4.75;;;;;;;16.92;40.36;102034.13;5104800;28;20044;-42
2022/03/03 04:05:04;;;;;;;8.80;4.47;;;;;;;16.99;40.12;102032.69;5104696;28;20040;-42
2022/03/03 04:07:31;;;;;;;6.05;4.00;;;;;;;17.05;40.41;102039.44;5103783;28;20074;-42
2022/03/03 04:09:58;;;;;;;6.35;4.15;;;;;;;17.11;40.37;102035.41;5102740;28;20353;-42
2022/03/03 04:12:25;;;;;;;6.13;4.20;;;;;;;17.17;40.65;102035.81;5106450;28;20123;-42
2022/03/03 04:14:52;;;;;;;7.45;5.05;;;;;;;17.25;39.91;102029.84;5105043;28;20132;-40
2022/03/03 04:17:18;;;;;;;6.07;4.40;;;;;;;17.32;39.88;102030.22;5102431;28;20448;-41
2022/03/03 04:19:45;;;;;;;5.97;4.35;;;;;;;17.41;40.56;102034.88;5108589;28;20062;-41
2022/03/03 04:22:11;;;;;;;6.63;4.70;;;;;;;17.47;40.13;102037.06;5104160;28;20066;-40
2022/03/03 04:24:38;;;;;;;5.50;4.07;;;;;;;17.54;40.52;102024.03;5106506;28;20044;-40
2022/03/03 04:27:05;;;;;;;6.85;4.25;;;;;;;17.61;40.07;102027.91;5103751;28;20127;-42
2022/03/03 04:29:31;;;;;;;6.65;4.80;;;;;;;17.68;39.87;102031.81;5103382;28;20066;-42
2022/03/03 04:31:58;;;;;;;6.35;4.20;;;;;;;17.75;40.44;102030.38;5100447;28;20043;-43
2022/03/03 04:34:25;;;;;;;5.40;3.80;;;;;;;17.82;40.37;102028.06;5101788;28;20040;-42
2022/03/03 04:36:52;;;;;;;5.80;3.97;;;;;;;17.87;40.05;102031.22;5105627;28;20134;-42
2022/03/03 04:39:19;;;;;;;4.75;4.00;;;;;;;17.92;39.88;102029.88;5100646;28;20067;-42
2022/03/03 04:41:45;;;;;;;6.22;4.28;;;;;;;17.96;39.63;102028.66;5103127;28;20131;-42
2022/03/03 04:44:12;;;;;;;5.72;4.00;;;;;;;18.00;39.76;102029.25;5102774;28;20039;-44
2022/03/03 04:46:39;;;;;;;4.95;4.20;;;;;;;18.03;39.57;102020.13;5097657;28;20052;-42
2022/03/03 04:49:05;;;;;;;4.50;3.72;;;;;;;18.04;40.02;102022.66;5100015;28;20053;-44
2022/03/03 04:51:36;;;;;;;6.05;4.05;;;;;;;18.04;39.95;102016.44;5102341;28;20138;-42
2022/03/03 04:54:05;;;;;;;4.55;4.05;;;;;;;18.03;39.66;102010.22;5101344;28;20439;-43
2022/03/03 04:56:32;;;;;;;8.73;4.28;;;;;;;18.00;39.53;102013.16;5100508;28;20322;-42
2022/03/03 04:58:59;;;;;;;5.78;3.80;;;;;;;17.95;39.44;102013.53;5104053;28;20442;-42
2022/03/03 05:01:25;;;;;;;6.30;4.10;;;;;;;17.92;39.41;102010.25;5100657;28;20058;-42
2022/03/03 05:03:52;;;;;;;6.22;4.57;;;;;;;17.89;39.61;102015.84;5101178;28;20065;-42
2022/03/03 05:06:19;;;;;;;6.20;4.10;;;;;;;17.84;39.27;102020.75;5101540;28;20383;-42
2022/03/03 05:08:45;;;;;;;5.80;4.18;;;;;;;17.80;39.36;102016.59;5100978;28;20051;-42
2022/03/03 05:11:12;;;;;;;6.03;4.28;;;;;;;17.76;39.76;102016.84;5104830;28;20058;-42
2022/03/03 05:13:39;;;;;;;5.90;4.05;;;;;;;17.71;39.36;102027.06;5103531;28;20044;-42
2022/03/03 05:16:05;;;;;;;7.32;4.45;;;;;;;17.67;39.49;102022.06;5096759;28;20127;-40
2022/03/03 05:18:32;;;;;;;6.35;4.45;;;;;;;17.58;39.47;102012.94;5101367;28;20090;-42
2022/03/03 05:20:59;;;;;;;6.57;4.70;;;;;;;17.52;39.64;102016.09;5102791;28;20079;-42
2022/03/03 05:23:26;;;;;;;6.93;4.43;;;;;;;17.46;39.12;102014.75;5101242;28;20147;-41
2022/03/03 05:25:52;;;;;;;6.22;4.50;;;;;;;17.41;38.82;102011.59;5100191;28;20159;-41
2022/03/03 05:28:19;;;;;;;8.20;4.93;;;;;;;17.35;39.22;102013.91;5097814;28;20124;-41
2022/03/03 05:30:45;;;;;;;8.65;5.13;;;;;;;17.27;39.05;102014.50;5102389;28;20138;-42
2022/03/03 05:33:12;;;;;;;7.68;4.90;;;;;;;17.21;39.40;102017.66;5096377;28;20521;-42
2022/03/03 05:35:40;;;;;;;6.10;4.30;;;;;;;17.14;39.20;102025.31;5102945;28;20047;-42
2022/03/03 05:38:07;;;;;;;8.05;4.85;;;;;;;17.09;39.68;102021.31;5103604;28;20314;-42
2022/03/03 05:40:33;;;;;;;7.32;4.78;;;;;;;17.02;39.73;102018.22;5102768;28;20078;-42
2022/03/03 05:43:00;;;;;;;7.80;5.00;;;;;;;16.98;40.17;102019.44;5099362;28;20047;-42
2022/03/03 05:45:27;;;;;;;7.25;4.57;;;;;;;16.92;39.57;102014.53;5101271;28;20047;-41
2022/03/03 05:47:54;;;;;;;7.38;4.47;;;;;;;16.88;40.49;102018.44;5099039;28;20047;-42
2022/03/03 05:50:20;;;;;;;7.07;5.13;;;;;;;16.84;40.04;102017.81;5101615;28;20050;-42
2022/03/03 05:52:47;;;;;;;7.20;5.22;;;;;;;16.81;39.58;102010.03;5100800;28;20047;-42
2022/03/03 05:55:13;;;;;;;6.63;4.50;;;;;;;16.77;39.40;102009.41;5101255;28;20394;-42
2022/03/03 05:57:45;;;;;;;6.90;4.72;;;;;;;16.76;40.44;102014.84;5100179;28;20036;-42
2022/03/03 06:00:17;;;;;;;7.18;4.72;;;;;;;16.72;39.56;102011.56;5099088;28;20062;-43
2022/03/03 06:02:52;;;;;;;9.15;5.70;;;;;;;16.69;40.60;102008.25;5103507;28;20126;-46
2022/03/03 06:05:27;;;;;;;7.28;4.75;;;;;;;16.67;40.03;102011.03;5096611;28;20067;-42
2022/03/03 06:08:01;;;;;;;9.27;5.50;;;;;;;16.66;40.08;102017.34;5096628;28;20440;-41
2022/03/03 06:10:32;;;;;;;8.98;5.05;;;;;;;16.67;40.87;102028.91;5099505;28;20431;-42
2022/03/03 06:13:12;;;;;;;9.50;4.85;;;;;;;16.66;42.21;102022.72;5096695;28;21077;-42
2022/03/03 06:15:42;;;;;;;9.38;5.80;;;;;;;16.66;43.37;102021.88;5099957;28;20364;-41
2022/03/03 06:18:09;;;;;;;10.48;5.43;;;;;;;16.65;43.37;102023.69;5098201;28;20048;-42
2022/03/03 06:20:37;;;;;;;7.82;4.60;;;;;;;16.65;43.18;102026.38;5100057;28;20130;-42
2022/03/03 06:23:04;;;;;;;11.52;4.88;;;;;;;16.66;42.66;102029.91;5101333;28;20076;-42
2022/03/03 06:25:31;;;;;;;10.13;5.50;;;;;;;16.66;43.04;102025.38;5102728;28;20143;-41
2022/03/03 06:27:58;;;;;;;10.52;5.90;;;;;;;16.65;43.24;102029.03;5103432;28;20205;-41
2022/03/03 06:30:25;;;;;;;11.25;5.88;;;;;;;16.67;43.69;102032.44;5097100;28;20170;-42
2022/03/03 06:32:51;;;;;;;10.45;5.68;;;;;;;16.67;43.12;102032.44;5096721;28;20080;-42
2022/03/03 06:35:18;;;;;;;10.43;5.43;;;;;;;16.67;42.30;102036.94;5098217;28;20082;-41
2022/03/03 06:37:44;;;;;;;12.30;5.75;;;;;;;16.66;42.74;102041.44;5099627;28;20039;-41
2022/03/03 06:40:11;;;;;;;13.38;5.57;;;;;;;16.67;41.75;102036.94;5100711;28;20426;-42
2022/03/03 06:42:38;;;;;;;14.27;5.93;;;;;;;16.67;42.37;102043.16;5102440;28;20409;-42
2022/03/03 06:45:05;;;;;;;14.50;5.53;;;;;;;16.65;42.84;102045.09;5099617;28;20049;-41
2022/03/03 06:47:32;;;;;;;11.25;5.88;;;;;;;16.63;42.44;102041.69;5096573;28;20044;-40
2022/03/03 06:49:58;;;;;;;12.20;5.97;;;;;;;16.63;42.58;102041.69;5101023;28;20363;-40
2022/03/03 06:52:26;;;;;;;12.80;5.22;;;;;;;16.62;42.31;102039.97;5100761;28;20096;-41
2022/03/03 06:54:54;;;;;;;11.88;5.57;;;;;;;16.61;41.74;102043.63;5101343;28;20051;-41
2022/03/03 06:57:21;;;;;;;15.05;5.78;;;;;;;16.62;42.57;102039.97;5098833;28;20046;-40
2022/03/03 06:59:50;;;;;;;14.40;5.93;;;;;;;16.61;41.86;102037.44;5097122;28;20112;-42
2022/03/03 07:02:17;;;;;;;13.30;5.95;;;;;;;16.59;41.73;102042.88;5100042;28;20138;-41
2022/03/03 07:04:48;;;;;;;11.40;5.95;;;;;;;16.58;42.24;102049.19;5100556;28;20040;-41
2022/03/03 07:07:15;;;;;;;12.80;5.25;;;;;;;16.57;42.17;102052.84;5099216;28;20047;-41
2022/03/03 07:09:43;;;;;;;12.68;6.07;;;;;;;16.55;41.86;102046.75;5098955;28;20147;-42
2022/03/03 07:12:12;;;;;;;12.57;5.85;;;;;;;16.54;41.97;102048.56;5100045;28;20130;-42
2022/03/03 07:14:39;;;;;;;13.35;5.57;;;;;;;16.54;41.95;102061.09;5095659;28;20123;-42
2022/03/03 07:17:17;;;;;;;10.32;5.68;;;;;;;16.53;42.29;102059.41;5098544;28;20138;-42
2022/03/03 07:19:53;;;;;;;16.48;6.13;;;;;;;16.53;41.55;102064.75;5096811;28;20071;-42
2022/03/03 07:22:28;;;;;;;14.02;6.47;;;;;;;16.52;42.42;102066.59;5103305;28;20070;-42
2022/03/03 07:25:00;;;;;;;15.32;6.28;;;;;;;16.52;42.08;102068.38;5101777;28;20048;-42
2022/03/03 07:27:28;;;;;;;14.97;6.40;;;;;;;16.53;41.49;102072.78;5101424;28;20044;-42
2022/03/03 07:30:06;;;;;;;14.50;6.65;;;;;;;16.53;42.38;102067.44;5103060;28;20047;-42
2022/03/03 07:32:38;;;;;;;13.60;6.20;;;;;;;16.53;42.25;102068.28;5103255;28;20122;-41
2022/03/03 07:35:07;;;;;;;13.77;6.35;;;;;;;16.55;41.36;102057.44;5101207;28;20085;-42
2022/03/03 07:37:41;;;;;;;11.93;6.35;;;;;;;16.54;41.55;102064.63;5104001;28;20075;-42
2022/03/03 07:40:09;;;;;;;;;;;;;;;16.56;41.46;102066.34;5103007;28;20363;-42
2022/03/03 07:42:36;;;;;;;14.15;6.32;;;;;;;16.57;42.02;102060.88;5104426;28;19920;-42
2022/03/03 07:45:04;;;;;;;15.35;6.22;;;;;;;16.57;42.46;102063.56;5106371;28;20353;-42
2022/03/03 07:47:31;;;;;;;11.02;5.53;;;;;;;16.57;41.62;102057.34;5100751;28;20073;-43
2022/03/03 07:49:58;;;;;;;12.52;6.10;;;;;;;16.59;41.50;102058.94;5102402;28;20044;-42
2022/03/03 07:52:26;;;;;;;12.65;6.90;;;;;;;16.60;42.20;102062.47;5105669;28;20106;-42
2022/03/03 07:54:53;;;;;;;13.68;6.35;;;;;;;16.60;42.05;102060.63;5104591;28;20134;-43
2022/03/03 07:57:22;;;;;;;17.77;6.13;;;;;;;16.61;41.23;102062.38;5104087;28;20045;-43
2022/03/03 08:00:20;;;;;;;10.43;5.55;;;;;;;16.61;41.53;102062.38;5104623;28;20139;-42
2022/03/03 08:02:50;;;;;;;11.07;5.82;;;;;;;16.65;42.29;102061.16;5103255;28;20053;-43
2022/03/03 08:05:16;;;;;;;15.07;6.15;;;;;;;16.67;41.29;102067.25;5103145;28;20054;-42
2022/03/03 08:07:46;;;;;;;12.45;6.07;;;;;;;16.70;42.04;102069.69;5105064;28;20071;-42
2022/03/03 08:10:14;;;;;;;15.70;6.68;;;;;;;16.74;42.04;102068.53;5102325;27;20377;-42
2022/03/03 08:12:42;;;;;;;12.35;5.93;;;;;;;16.76;41.91;102063.94;5101510;28;20037;-42
2022/03/03 08:15:10;;;;;;;13.68;6.53;;;;;;;16.81;41.22;102065.41;5105129;28;20130;-43
2022/03/03 08:17:37;;;;;;;14.95;6.18;;;;;;;16.85;41.58;102069.56;5102987;28;20115;-43
2022/03/03 08:20:07;;;;;;;10.77;6.25;;;;;;;16.88;41.89;102072.84;5105547;28;20138;-42
2022/03/03 08:22:34;;;;;;;13.68;5.95;;;;;;;16.93;42.05;102072.50;5103790;28;20394;-42
2022/03/03 08:25:01;;;;;;;10.18;6.00;;;;;;;16.98;41.15;102079.22;5104107;28;20498;-42
2022/03/03 08:27:28;;;;;;;11.82;6.50;;;;;;;17.02;41.96;102072.66;5105985;28;20118;-43
2022/03/03 08:30:00;;;;;;;13.82;6.32;;;;;;;17.07;41.74;102077.66;5103982;28;20040;-40
2022/03/03 08:32:34;;;;;;;13.02;6.63;;;;;;;17.12;41.74;102080.81;5106524;28;20047;-40
2022/03/03 08:35:11;;;;;;;11.30;6.33;;;;;;;17.16;41.72;102084.97;5102400;28;20178;-40
2022/03/03 08:37:41;;;;;;;10.50;6.07;;;;;;;17.21;41.56;102080.16;5102641;28;20756;-40
2022/03/03 08:40:11;;;;;;;10.27;6.03;;;;;;;17.25;41.63;102076.25;5105315;28;20056;-41
2022/03/03 08:42:43;;;;;;;17.90;7.35;;;;;;;17.30;41.53;102083.94;5105266;28;20058;-41
2022/03/03 08:45:11;;;;;;;12.88;6.47;;;;;;;17.35;41.03;102079.06;5100828;28;20051;-40
2022/03/03 08:47:41;;;;;;;13.40;7.00;;;;;;;17.39;41.45;102080.53;5100273;28;20094;-41
2022/03/03 08:50:15;;;;;;;16.33;6.93;;;;;;;17.45;41.74;102084.59;5104011;28;20047;-42
2022/03/03 08:52:58;;;;;;;11.82;6.45;;;;;;;17.50;41.59;102074.34;5103182;28;20040;-42
2022/03/03 08:55:29;;;;;;;11.65;6.30;;;;;;;17.55;41.35;102088.22;5097841;28;20044;-41
2022/03/03 08:57:55;;;;;;;13.35;5.78;;;;;;;17.59;41.30;102076.28;5105593;28;20102;-40
2022/03/03 09:00:22;;;;;;;11.93;5.90;;;;;;;17.63;40.53;102080.44;5097330;28;20138;-40
2022/03/03 09:02:50;;;;;;;11.05;5.55;;;;;;;17.67;40.79;102073.84;5102643;28;20398;-42
2022/03/03 09:05:17;;;;;;;11.13;6.18;;;;;;;17.72;40.58;102078.84;5100625;28;20046;-42
2022/03/03 09:07:45;;;;;;;10.32;5.80;;;;;;;17.75;40.62;102084.00;5102846;28;20462;-40
2022/03/03 09:10:12;;;;;;;14.07;5.95;;;;;;;17.78;40.71;102078.41;5101976;28;20043;-41
2022/03/03 09:12:40;;;;;;;12.70;6.68;;;;;;;17.82;41.08;102076.34;5102337;28;20149;-42
2022/03/03 09:15:07;;;;;;;17.30;7.13;;;;;;;17.86;40.44;102083.19;5101456;28;20186;-42
2022/03/03 09:17:35;;;;;;;9.82;5.97;;;;;;;17.89;40.14;102080.22;5100854;28;20032;-43
2022/03/03 09:20:06;;;;;;;10.48;6.03;;;;;;;17.93;40.67;102081.69;5102689;28;20396;-42
2022/03/03 10:56:46;;;;;;;9.57;5.30;;;;;;;19.48;38.49;102023.94;5079450;28;20257;-45
2022/03/03 10:59:26;;;;;;;9.18;5.05;;;;;;;19.52;38.52;102020.00;5101676;28;20056;-44
2022/03/03 11:01:53;;;;;;;10.45;5.78;;;;;;;19.53;38.61;102021.69;5100398;28;20501;-43
2022/03/03 11:04:23;;;;;;;8.70;5.07;;;;;;;19.54;39.03;102019.84;5107294;28;20059;-43
2022/03/03 11:06:53;;;;;;;9.30;5.95;;;;;;;19.55;38.10;102029.66;5104140;28;20198;-43
2022/03/03 11:09:20;;;;;;;8.25;5.25;;;;;;;19.56;38.80;102024.13;5104244;28;20130;-43
2022/03/03 11:11:47;;;;;;;7.75;5.15;;;;;;;19.58;38.53;102019.47;5105920;28;20076;-45
2022/03/03 11:14:14;;;;;;;6.68;4.68;;;;;;;19.59;38.53;102017.63;5102399;28;20317;-44
2022/03/03 11:16:41;;;;;;;6.95;5.07;;;;;;;19.61;38.27;102010.25;5105229;28;20058;-44
2022/03/03 11:19:10;;;;;;;9.80;5.40;;;;;;;19.61;38.37;102019.22;5101731;28;20102;-43
2022/03/03 11:21:39;;;;;;;10.52;5.43;;;;;;;19.62;37.90;102012.03;5099220;28;20073;-44
2022/03/03 11:24:08;;;;;;;7.85;5.25;;;;;;;19.62;38.40;102014.72;5100946;28;20504;-45
2022/03/03 11:26:41;;;;;;;10.52;5.88;;;;;;;19.62;38.22;102014.72;5105095;28;20042;-44
2022/03/03 11:29:12;;;;;;;;;;;;;;;19.63;38.14;102001.13;5102881;28;20035;-44
2022/03/03 11:31:44;;;;;;;9.02;5.40;;;;;;;19.66;38.11;102002.69;5099993;28;19998;-44
2022/03/03 11:34:30;;;;;;;7.82;5.05;;;;;;;19.64;37.83;102000.13;5101731;28;20093;-44
2022/03/03 11:37:04;;;;;;;7.82;4.70;;;;;;;19.66;38.53;102006.22;5101447;28;20044;-44
2022/03/03 11:39:42;;;;;;;7.32;4.47;;;;;;;19.66;38.04;101995.47;5102943;28;20123;-43
2022/03/03 11:42:17;;;;;;;7.82;4.88;;;;;;;19.67;38.27;101991.78;5102535;28;20296;-44
2022/03/03 11:44:44;;;;;;;7.70;5.22;;;;;;;19.69;37.59;101991.63;5100013;28;20071;-44
2022/03/03 11:47:22;;;;;;;6.97;4.70;;;;;;;19.68;37.69;101992.63;5098026;28;20060;-43
2022/03/03 11:50:07;;;;;;;8.23;4.93;;;;;;;19.69;37.95;101987.09;5103165;28;20052;-45
2022/03/03 11:52:35;;;;;;;6.65;4.55;;;;;;;19.69;37.55;101981.72;5100697;28;20207;-44
2022/03/03 11:55:24;;;;;;;7.22;5.40;;;;;;;19.70;37.81;101980.75;5103231;28;20039;-44
2022/03/03 11:57:58;;;;;;;8.20;5.00;;;;;;;19.72;37.40;101984.16;5101367;28;20300;-43
2022/03/03 12:00:24;;;;;;;6.32;4.65;;;;;;;19.72;38.02;101977.94;5105295;28;20078;-45
2022/03/03 12:03:03;;;;;;;8.95;5.03;;;;;;;19.73;37.90;101979.63;5099166;28;20062;-44
2022/03/03 12:05:32;;;;;;;7.43;4.82;;;;;;;19.75;37.04;101976.81;5100544;28;20058;-44
2022/03/03 12:08:28;;;;;;;10.48;5.35;;;;;;;19.75;37.33;101974.13;5103777;28;20058;-45
2022/03/03 12:11:15;;;;;;;10.38;5.18;;;;;;;19.76;37.27;101979.34;5101313;28;20071;-44
2022/03/03 12:13:48;;;;;;;6.80;4.50;;;;;;;19.79;37.62;101980.94;5099953;28;20135;-45
2022/03/03 12:16:28;;;;;;;6.68;4.30;;;;;;;19.78;37.60;101977.38;5102711;28;20044;-46
2022/03/03 12:18:55;;;;;;;7.10;4.40;;;;;;;19.80;37.67;101974.56;5101025;28;20088;-45
2022/03/03 12:21:44;;;;;;;7.60;4.57;;;;;;;19.81;37.70;101973.56;5099589;28;20067;-45
2022/03/03 12:24:14;;;;;;;6.93;4.28;;;;;;;19.82;37.29;101977.94;5098870;28;20080;-44
2022/03/03 12:26:55;;;;;;;6.93;4.75;;;;;;;19.82;37.70;101973.44;5099108;28;20067;-44
2022/03/03 12:29:50;;;;;;;6.90;4.25;;;;;;;19.84;37.41;101967.91;5103274;28;20130;-45
2022/03/03 12:32:40;;;;;;;6.10;4.15;;;;;;;19.87;37.70;101970.31;5099060;28;20051;-44
2022/03/03 12:35:21;;;;;;;5.97;4.15;;;;;;;19.88;37.63;101963.94;5098332;28;20052;-44
2022/03/03 12:37:49;;;;;;;6.18;4.35;;;;;;;19.89;37.25;101968.31;5100361;28;20162;-44
2022/03/03 12:40:19;;;;;;;6.43;3.97;;;;;;;19.90;37.17;101964.66;5103124;28;20056;-44
2022/03/03 12:42:47;;;;;;;5.57;3.72;;;;;;;19.92;37.51;101963.53;5100143;28;20350;-45
2022/03/03 12:45:18;;;;;;;7.15;4.18;;;;;;;19.92;37.44;101968.06;5101273;28;20052;-44
2022/03/03 12:47:49;;;;;;;5.85;3.85;;;;;;;19.93;37.57;101962.53;5099124;28;20133;-44
2022/03/03 12:50:20;;;;;;;5.63;4.03;;;;;;;19.96;37.12;101962.25;5098516;28;20127;-44
2022/03/03 12:53:08;;;;;;;5.93;4.03;;;;;;;19.96;37.52;101956.88;5101007;28;20130;-44
2022/03/03 12:55:43;;;;;;;7.80;4.25;;;;;;;19.99;36.83;101958.44;5100257;28;20082;-44
2022/03/03 12:58:12;;;;;;;5.63;3.80;;;;;;;20.00;36.69;101948.53;5100621;28;20055;-44
2022/03/03 13:00:40;;;;;;;6.22;3.80;;;;;;;20.01;36.99;101950.22;5101148;28;20158;-44
2022/03/03 13:03:08;;;;;;;5.88;3.92;;;;;;;20.04;37.31;101947.25;5102210;28;20134;-45
2022/03/03 13:05:47;;;;;;;5.68;4.07;;;;;;;20.05;37.06;101938.19;5099397;28;20039;-44
2022/03/03 13:08:34;;;;;;;5.57;3.70;;;;;;;20.07;36.67;101939.75;5099152;28;20039;-44